Impacts TAF Board
For situational awareness. Not to be used for flight planning purposes.
IDs:

KGBD - Great Bend Muni, KS, US

Issued at 1127 UTC 10 Aug 2022
Updated at 1510 UTC 10 Aug 2022
Potential Impact None Slight Moderate High
Time1456Z 10/16Z 10/17Z 10/18Z 10/19Z 10/20Z 10/21Z 10/22Z 10/23Z 11/00Z 11/01Z 11/02Z 11/03Z 11/04Z>>
Type OBS PRVL PRVL PRVL PRVL PRVL PRVL PRVL PRVL PRVL PRVL PRVL PRVL PRVL
VIS 10 >6 >6 >6 >6 >6 >6 >6 >6 >6 >6 >6 >6 >6
CIG -- -- -- -- -- -- -- -- -- -- -- -- -- --
Cover CLR SKC SKC SKC SKC SKC SKC SKC SKC SKC SKC SKC SKC SKC
FltCat VFR VFR VFR VFR VFR VFR VFR VFR VFR VFR VFR VFR VFR VFR
WX -- -- -- -- -- -- -- -- -- -- -- -- -- --
WDir 110 110 110 110 110 110 110 110 90 90 90 100 100 100
WSpd 9 7 7 7 7 7 7 7 10 10 10 7 7 7
WGst -- -- -- -- -- -- -- -- -- -- -- -- -- --
WSHgt -- -- -- -- -- -- -- -- -- -- -- -- -- --
WSDir -- -- -- -- -- -- -- -- -- -- -- -- -- --
WSSpd -- -- -- -- -- -- -- -- -- -- -- -- -- --
Raw TAF
KGBD 101127Z 1012/1112 00000KT P6SM SKC
  FM101400 12005KT P6SM SKC
  FM101500 11007KT P6SM SKC
  FM102300 09010KT P6SM SKC
  FM110200 10007KT P6SM SKC


Raw METAR
KGBD 101456Z AUTO 11009KT 10SM CLR 26/19 A3023 RMK AO2 SLP218 T02560194 51011
KGBD 101356Z AUTO 12006KT 10SM CLR 23/19 A3022 RMK AO2 SLP216 T02280189
KGBD 101256Z AUTO 00000KT 10SM CLR 19/16 A3021 RMK AO2 SLP211 T01890156

METAR Board
Radar Display
Forecast Discussion
For situational awareness. Not to be used for flight planning purposes.